Historyczne dane pomiarowe

Dodano dane terminowe – wersja testowa.

Dane z okresu 1951-2019

Wersja bazy: 1.34 [2019-03-16, lista zmian], aktualizacja planowana na 2019-04-15

Dane meteo z obszaru Polski uzyskane na podstawie danych udostępnionych przez Instytut Meteorologii i Gospodarki Wodnej – Państwowy Instytut Badawczy.

 

Wybierz Datę:    

       

TemperaturaWilgotnośćWiatrCiśnienieOpadyŚniegCzas trwania zjawisk
 Stacja t tx tn tng RH VA  wxwx mslp ppp RRR   cm mm wxwxwxwxwxwxwx
2010-06-13 14.0 19.6 7.7 6.5 69.0 10.7------ 0.0--x---------
2010-06-14 13.6 19.8 7.0 5.4 72.0 10.7------ 0.0--x---------
2010-06-15 14.6 21.2 5.3 4.1 71.0 11.4------ 0.0--x---------
2010-06-16 14.3 22.2 4.2 2.1 62.0 9.4------ 0.0--x---------
2010-06-17 16.5 23.9 6.2 3.0 60.0 10.1------ 0.0--x---------
2010-06-18 17.6 25.9 7.8 5.1 61.0 11.4------ 0.0--x---------
2010-06-19 12.9 17.9 6.5 4.6 63.0 9.2------ 0.0--x---------
2010-06-20 13.8 19.2 4.5 2.8 63.0 9.5------ 0.0--x---------
2010-06-21 14.9 20.6 8.0 6.0 69.0 11.5------ 0.0--x---------
2010-06-22 15.2 22.3 5.2 3.6 65.0 10.5------ 0.0--x---------
2010-06-23 15.2 22.2 4.5 2.9 65.0 10.6------ 0.0--x---------
2010-06-24 16.8 24.3 6.5 4.8 70.0 12.4------ 0.0--x---------
2010-06-25 18.6 25.9 9.1 7.5 68.0 13.6------ 0.0--x---------
2010-06-26 19.1 24.3 11.8 8.5 65.0 14.0------ 0.0--x---------
2010-06-27 17.9 26.1 8.9 5.8 60.0 11.1------ 0.0--x---------
2010-06-28 20.4 28.7 7.8 5.6 55.0 11.9------ 0.0--x---------
2010-06-29 21.9 30.4 11.0 8.8 55.0 12.8------ 0.0--x---------
2010-06-30 21.8 27.8 12.5 11.4 63.0 15.9------ 0.6--x---------
2010-07-01 21.4 28.9 13.4 11.9 68.0 16.4------ 0.0--x---------
2010-07-02 23.1 30.8 14.5 11.7 56.0 14.6------ 0.0--x---------
2010-07-03 24.0 32.3 13.2 11.2 53.0 14.1------ 0.0--x---------
2010-07-04 22.9 31.3 11.7 8.7 49.0 11.7------ 0.0--x---------
2010-07-05 22.6 29.0 14.2 12.7 64.0 17.2------ 8.4--x---------
2010-07-06 18.6 22.0 14.3 12.5 68.0 14.3------ 0.0--x---------
2010-07-07 16.9 23.3 9.1 7.5 64.0 11.7------ 0.0--x---------
2010-07-08 19.3 29.0 7.2 5.9 61.0 12.2------ 0.0--x---------
2010-07-09 23.8 32.7 10.9 9.4 54.0 13.8------ 0.0--x---------
2010-07-10 26.8 36.0 14.4 12.4 48.0 15.0------ 0.0--x---------
2010-07-11 27.6 36.2 15.8 12.8 47.0 15.5------ 0.0--x---------
2010-07-12 28.4 36.5 17.2 15.3 48.0 16.7------ 0.0--x---------
82.7 ms

 

Źródłem pochodzenia danych jest Instytut Meteorologii i Gospodarki Wodnej – Państwowy Instytut Badawczy. Dane Instytutu Meteorologii i Gospodarki Wodnej – Państwowego Instytutu Badawczego zostały przetworzone.

Dane źródłowe można odnaleźć na stronie https://dane.imgw.pl